createdAt,value
2018-01-08T00:00:02.051Z,95.69
2018-01-08T00:01:01.970Z,95.50
2018-01-08T00:02:01.889Z,95.60
2018-01-08T00:03:01.809Z,95.36
2018-01-08T00:04:01.728Z,95.41
2018-01-08T00:05:01.650Z,95.60
2018-01-08T00:06:01.566Z,95.17
2018-01-08T00:07:01.486Z,95.93
2018-01-08T00:08:01.405Z,95.41
2018-01-08T00:09:01.329Z,95.60
2018-01-08T00:10:01.243Z,95.41
2018-01-08T00:11:01.164Z,95.41
2018-01-08T00:12:01.084Z,95.69
2018-01-08T00:13:01.004Z,94.84
2018-01-08T00:14:00.923Z,95.31
2018-01-08T00:15:00.842Z,95.50
2018-01-08T00:16:00.762Z,95.60
2018-01-08T00:17:00.682Z,95.12
2018-01-08T00:18:00.601Z,95.69
2018-01-08T00:19:00.521Z,96.26
2018-01-08T00:20:00.441Z,95.98
2018-01-08T00:21:00.360Z,95.31
2018-01-08T00:22:00.280Z,95.50
2018-01-08T00:23:00.199Z,95.31
2018-01-08T00:24:00.121Z,95.74
2018-01-08T00:25:00.042Z,95.98
2018-01-08T00:25:59.958Z,95.26
2018-01-08T00:26:59.878Z,95.79
2018-01-08T00:27:59.798Z,96.36
2018-01-08T00:28:59.718Z,95.98
2018-01-08T00:29:59.637Z,95.65
2018-01-08T00:30:59.557Z,95.98
2018-01-08T00:31:59.477Z,95.93
2018-01-08T00:32:59.395Z,96.12
2018-01-08T00:33:59.316Z,96.22
2018-01-08T00:34:59.235Z,96.31
2018-01-08T00:35:59.154Z,96.12
2018-01-08T00:36:59.074Z,95.65
2018-01-08T00:37:58.995Z,96.31
2018-01-08T00:38:58.913Z,95.98
2018-01-08T00:39:58.833Z,95.45
2018-01-08T00:40:58.752Z,96.17
2018-01-08T00:41:58.669Z,96.17
2018-01-08T00:42:58.591Z,96.41
2018-01-08T00:43:58.511Z,95.26
2018-01-08T00:44:58.430Z,95.93
2018-01-08T00:45:58.349Z,95.74
2018-01-08T00:46:58.268Z,96.17
2018-01-08T00:47:58.188Z,96.41
2018-01-08T00:48:58.108Z,96.59
2018-01-08T00:49:58.026Z,96.22
2018-01-08T00:50:57.945Z,96.22
2018-01-08T00:51:57.865Z,95.50
2018-01-08T00:52:57.785Z,96.17
2018-01-08T00:53:57.704Z,96.41
2018-01-08T00:54:57.622Z,96.78
2018-01-08T00:55:57.549Z,96.26
2018-01-08T00:56:57.463Z,96.55
2018-01-08T00:57:57.381Z,96.78
2018-01-08T00:58:57.301Z,96.88
2018-01-08T00:59:57.220Z,96.50
2018-01-08T01:00:57.140Z,96.69
2018-01-08T01:01:57.059Z,96.59
2018-01-08T01:02:56.978Z,96.73
2018-01-08T01:03:56.897Z,96.36
2018-01-08T01:04:56.818Z,96.17
2018-01-08T01:05:56.736Z,96.03
2018-01-08T01:06:56.656Z,96.26
2018-01-08T01:07:56.575Z,96.17
2018-01-08T01:08:56.496Z,96.36
2018-01-08T01:09:56.415Z,95.79
2018-01-08T01:10:56.334Z,96.36
2018-01-08T01:11:56.255Z,96.73
2018-01-08T01:12:56.177Z,96.26
2018-01-08T01:13:56.093Z,96.36
2018-01-08T01:14:56.012Z,97.02
2018-01-08T01:15:55.932Z,96.45
2018-01-08T01:16:55.851Z,97.02
2018-01-08T01:17:55.771Z,96.78
2018-01-08T01:18:55.690Z,96.17
2018-01-08T01:19:55.611Z,96.31
2018-01-08T01:20:55.531Z,96.55
2018-01-08T01:21:55.449Z,97.21
2018-01-08T01:22:55.369Z,97.88
2018-01-08T01:23:55.288Z,96.73
2018-01-08T01:24:55.208Z,96.59
2018-01-08T01:25:55.130Z,95.79
2018-01-08T01:26:55.049Z,96.26
2018-01-08T01:27:54.972Z,96.31
2018-01-08T01:28:54.887Z,96.92
2018-01-08T01:29:54.805Z,96.92
2018-01-08T01:30:54.725Z,96.45
2018-01-08T01:31:54.646Z,96.45
2018-01-08T01:32:54.568Z,96.83
2018-01-08T01:33:54.483Z,96.26
2018-01-08T01:34:54.404Z,96.55
2018-01-08T01:35:54.323Z,96.73
2018-01-08T01:36:54.243Z,96.45
2018-01-08T01:37:54.162Z,97.12
2018-01-08T01:38:54.081Z,96.73
2018-01-08T01:39:54.002Z,96.50
2018-01-08T01:40:53.921Z,96.55
2018-01-08T01:41:53.840Z,96.08
2018-01-08T01:42:53.760Z,96.17
2018-01-08T01:43:53.680Z,97.12
2018-01-08T01:44:53.600Z,96.55
2018-01-08T01:45:53.519Z,96.36
2018-01-08T01:46:53.438Z,96.55
2018-01-08T01:47:53.357Z,96.55
2018-01-08T01:48:53.277Z,96.83
2018-01-08T01:49:53.196Z,96.83
2018-01-08T01:50:53.115Z,97.02
2018-01-08T01:51:53.035Z,96.83
2018-01-08T01:52:52.955Z,96.83
2018-01-08T01:53:52.874Z,96.92
2018-01-08T01:54:52.796Z,96.92
2018-01-08T01:55:52.713Z,96.92
2018-01-08T01:56:52.634Z,96.83
2018-01-08T01:57:52.552Z,96.64
2018-01-08T01:58:52.472Z,96.36
2018-01-08T01:59:52.392Z,96.64
2018-01-08T02:00:52.313Z,96.45
2018-01-08T02:01:52.231Z,96.64
2018-01-08T02:02:52.150Z,96.26
2018-01-08T02:03:52.070Z,96.26
2018-01-08T02:04:51.993Z,96.55
2018-01-08T02:05:51.910Z,96.83
2018-01-08T02:06:51.830Z,96.83
2018-01-08T02:07:51.749Z,97.21
2018-01-08T02:08:51.669Z,96.83
2018-01-08T02:09:51.588Z,96.83
2018-01-08T02:10:51.510Z,96.36
2018-01-08T02:11:51.427Z,95.98
2018-01-08T02:12:51.348Z,96.83
2018-01-08T02:13:51.267Z,96.83
2018-01-08T02:14:51.187Z,96.26
2018-01-08T02:15:51.106Z,96.45
2018-01-08T02:16:51.030Z,96.36
2018-01-08T02:17:50.946Z,96.55
2018-01-08T02:18:50.865Z,96.17
2018-01-08T02:19:50.786Z,96.92
2018-01-08T02:20:50.705Z,96.64
2018-01-08T02:21:50.625Z,96.64
2018-01-08T02:22:50.544Z,96.36
2018-01-08T02:23:50.465Z,96.36
2018-01-08T02:24:50.385Z,96.45
2018-01-08T02:25:50.304Z,96.45
2018-01-08T02:26:50.224Z,96.17
2018-01-08T02:27:50.143Z,96.26
2018-01-08T02:28:50.064Z,97.12
2018-01-08T02:29:49.982Z,96.73
2018-01-08T02:30:49.903Z,96.45
2018-01-08T02:31:49.822Z,96.17
2018-01-08T02:32:49.742Z,96.36
2018-01-08T02:33:49.661Z,96.64
2018-01-08T02:34:49.581Z,97.02
2018-01-08T02:35:49.501Z,96.64
2018-01-08T02:36:49.421Z,96.36
2018-01-08T02:37:49.340Z,96.83
2018-01-08T02:38:49.260Z,96.55
2018-01-08T02:39:49.179Z,96.83
2018-01-08T02:40:49.100Z,96.55
2018-01-08T02:41:49.018Z,96.26
2018-01-08T02:42:48.938Z,96.45
2018-01-08T02:43:48.859Z,96.45
2018-01-08T02:44:48.783Z,96.55
2018-01-08T02:45:48.848Z,96.64
2018-01-08T02:46:48.617Z,96.36
2018-01-08T02:47:48.538Z,96.83
2018-01-08T02:48:48.458Z,96.55
2018-01-08T02:49:48.376Z,96.64
2018-01-08T02:50:48.296Z,96.83
2018-01-08T02:51:48.216Z,96.64
2018-01-08T02:52:48.138Z,96.36
2018-01-08T02:53:48.059Z,96.08
2018-01-08T02:54:47.975Z,96.26
2018-01-08T02:55:47.897Z,96.45
2018-01-08T02:56:47.816Z,96.45
2018-01-08T02:57:47.736Z,96.17
2018-01-08T02:58:47.655Z,96.45
2018-01-08T02:59:47.581Z,97.40
2018-01-08T03:00:47.496Z,97.12
2018-01-08T03:01:47.414Z,96.36
2018-01-08T03:02:47.335Z,96.83
2018-01-08T03:03:47.254Z,96.36
2018-01-08T03:04:47.207Z,96.36
2018-01-08T03:05:47.094Z,96.55
2018-01-08T03:06:47.014Z,97.21
2018-01-08T03:07:46.934Z,96.55
2018-01-08T03:08:46.854Z,95.98
2018-01-08T03:09:46.773Z,96.36
2018-01-08T03:10:46.693Z,96.83
2018-01-08T03:11:46.613Z,96.45
2018-01-08T03:12:46.534Z,95.98
2018-01-08T03:13:46.455Z,96.36
2018-01-08T03:14:46.372Z,95.88
2018-01-08T03:15:46.292Z,96.45
2018-01-08T03:16:46.212Z,96.45
2018-01-08T03:17:46.131Z,96.36
2018-01-08T03:18:46.051Z,96.17
2018-01-08T03:19:45.971Z,95.88
2018-01-08T03:20:45.892Z,96.17
2018-01-08T03:21:45.810Z,96.17
2018-01-08T03:22:45.730Z,96.26
2018-01-08T03:23:45.650Z,96.17
2018-01-08T03:24:45.570Z,96.73
2018-01-08T03:25:45.491Z,96.17
2018-01-08T03:26:45.410Z,96.36
2018-01-08T03:27:45.330Z,96.36
2018-01-08T03:28:45.250Z,96.45
2018-01-08T03:29:45.169Z,95.98
2018-01-08T03:30:45.091Z,95.69
2018-01-08T03:31:45.009Z,96.26
2018-01-08T03:32:44.930Z,96.26
2018-01-08T03:33:44.848Z,96.55
2018-01-08T03:34:44.768Z,97.02
2018-01-08T03:35:44.689Z,96.17
2018-01-08T03:36:44.608Z,96.55
2018-01-08T03:37:44.528Z,96.36
2018-01-08T03:38:44.449Z,96.64
2018-01-08T03:39:44.367Z,96.36
2018-01-08T03:40:44.288Z,96.17
2018-01-08T03:41:44.207Z,96.55
2018-01-08T03:42:44.127Z,96.45
2018-01-08T03:43:44.047Z,96.26
2018-01-08T03:44:43.967Z,96.45
2018-01-08T03:45:43.887Z,96.45
2018-01-08T03:46:43.806Z,96.83
2018-01-08T03:47:43.727Z,96.36
2018-01-08T03:48:43.686Z,96.26
2018-01-08T03:49:43.566Z,96.45
2018-01-08T03:50:43.486Z,96.26
2018-01-08T03:51:43.406Z,96.45
2018-01-08T03:52:43.326Z,96.17
2018-01-08T03:53:43.245Z,95.88
2018-01-08T03:54:43.166Z,96.45
2018-01-08T03:55:43.087Z,96.45
2018-01-08T03:56:43.006Z,95.98
2018-01-08T03:57:42.928Z,96.17
2018-01-08T03:58:42.845Z,96.55
2018-01-08T03:59:42.766Z,95.98
2018-01-08T04:00:42.684Z,96.55
2018-01-08T04:01:42.605Z,96.55
2018-01-08T04:02:42.526Z,97.12
2018-01-08T04:03:42.445Z,96.83
2018-01-08T04:04:42.366Z,96.92
2018-01-08T04:05:42.284Z,96.17
2018-01-08T04:06:42.204Z,96.92
2018-01-08T04:07:42.126Z,96.45
2018-01-08T04:08:42.046Z,96.08
2018-01-08T04:09:41.965Z,96.64
2018-01-08T04:10:41.885Z,96.36
2018-01-08T04:11:41.843Z,96.45
2018-01-08T04:12:41.726Z,96.17
2018-01-08T04:13:41.645Z,96.45
2018-01-08T04:14:41.565Z,96.45
2018-01-08T04:15:41.490Z,96.36
2018-01-08T04:16:41.407Z,96.45
2018-01-08T04:17:41.326Z,96.36
2018-01-08T04:18:41.247Z,96.55
2018-01-08T04:19:41.173Z,96.55
2018-01-08T04:20:41.088Z,96.73
2018-01-08T04:21:41.007Z,96.92
2018-01-08T04:22:40.928Z,96.36
2018-01-08T04:23:40.848Z,96.08
2018-01-08T04:24:40.769Z,96.17
2018-01-08T04:25:40.689Z,95.98
2018-01-08T04:26:40.608Z,95.98
2018-01-08T04:27:40.529Z,96.45
2018-01-08T04:28:40.451Z,95.98
2018-01-08T04:29:40.369Z,96.36
2018-01-08T04:30:40.290Z,97.21
2018-01-08T04:31:40.210Z,96.26
2018-01-08T04:32:40.132Z,96.55
2018-01-08T04:33:40.049Z,96.55
2018-01-08T04:34:39.970Z,96.36
2018-01-08T04:35:39.890Z,96.64
2018-01-08T04:36:39.811Z,97.12
2018-01-08T04:37:39.730Z,97.21
2018-01-08T04:38:39.650Z,96.92
2018-01-08T04:39:39.575Z,96.92
2018-01-08T04:40:39.492Z,97.02
2018-01-08T04:41:39.410Z,97.02
2018-01-08T04:42:39.331Z,96.36
2018-01-08T04:43:39.251Z,96.45
2018-01-08T04:44:39.172Z,96.17
2018-01-08T04:45:39.091Z,96.17
2018-01-08T04:46:39.011Z,96.45
2018-01-08T04:47:38.931Z,96.92
2018-01-08T04:48:38.853Z,96.45
2018-01-08T04:49:38.772Z,96.17
2018-01-08T04:50:38.694Z,96.55
2018-01-08T04:51:38.612Z,97.50
2018-01-08T04:52:38.532Z,96.73
2018-01-08T04:53:38.453Z,96.64
2018-01-08T04:54:38.372Z,96.36
2018-01-08T04:55:38.292Z,96.92
2018-01-08T04:56:38.212Z,96.55
2018-01-08T04:57:38.132Z,97.12
2018-01-08T04:58:38.052Z,96.64
2018-01-08T04:59:37.971Z,97.02
2018-01-08T05:00:37.893Z,97.02
2018-01-08T05:01:37.811Z,96.73
2018-01-08T05:02:37.732Z,96.73
2018-01-08T05:03:37.652Z,97.02
2018-01-08T05:04:37.572Z,96.73
2018-01-08T05:05:37.492Z,97.02
2018-01-08T05:06:37.412Z,96.73
2018-01-08T05:07:37.333Z,96.73
2018-01-08T05:08:37.253Z,96.73
2018-01-08T05:09:37.172Z,97.69
2018-01-08T05:10:37.093Z,96.73
2018-01-08T05:11:37.014Z,96.55
2018-01-08T05:12:36.932Z,96.64
2018-01-08T05:13:36.852Z,96.36
2018-01-08T05:14:36.772Z,97.02
2018-01-08T05:15:36.693Z,97.12
2018-01-08T05:16:36.612Z,96.64
2018-01-08T05:17:36.682Z,96.83
2018-01-08T05:18:36.452Z,96.83
2018-01-08T05:19:36.372Z,96.83
2018-01-08T05:20:36.293Z,96.92
2018-01-08T05:21:36.212Z,97.02
2018-01-08T05:22:36.131Z,96.92
2018-01-08T05:23:36.054Z,96.36
2018-01-08T05:24:35.972Z,97.02
2018-01-08T05:25:35.892Z,97.02
2018-01-08T05:26:35.812Z,96.92
2018-01-08T05:27:35.732Z,96.36
2018-01-08T05:28:35.652Z,96.45
2018-01-08T05:29:35.571Z,97.02
2018-01-08T05:30:35.492Z,97.69
2018-01-08T05:31:35.411Z,96.83
2018-01-08T05:32:35.332Z,96.92
2018-01-08T05:33:35.251Z,96.83
2018-01-08T05:34:35.173Z,96.73
2018-01-08T05:35:35.092Z,96.55
2018-01-08T05:36:35.012Z,96.92
2018-01-08T05:37:34.932Z,96.83
2018-01-08T05:38:34.851Z,96.45
2018-01-08T05:39:34.772Z,96.73
2018-01-08T05:40:34.693Z,96.64
2018-01-08T05:41:34.611Z,96.55
2018-01-08T05:42:34.532Z,96.45
2018-01-08T05:43:34.458Z,96.73
2018-01-08T05:44:34.372Z,97.02
2018-01-08T05:45:34.291Z,96.55
2018-01-08T05:46:34.212Z,97.21
2018-01-08T05:47:34.132Z,97.88
2018-01-08T05:48:34.053Z,96.92
2018-01-08T05:49:33.972Z,96.64
2018-01-08T05:50:33.892Z,96.64
2018-01-08T05:51:33.813Z,96.55
2018-01-08T05:52:33.737Z,97.02
2018-01-08T05:53:33.653Z,96.83
2018-01-08T05:54:33.577Z,97.02
2018-01-08T05:55:33.492Z,96.92
2018-01-08T05:56:33.412Z,96.36
2018-01-08T05:57:33.336Z,96.17
2018-01-08T05:58:33.253Z,96.36
2018-01-08T05:59:33.173Z,96.36
2018-01-08T06:00:33.093Z,95.98
2018-01-08T06:01:33.013Z,96.55
2018-01-08T06:02:32.936Z,97.31
2018-01-08T06:03:32.852Z,97.59
2018-01-08T06:04:32.773Z,97.69
2018-01-08T06:05:32.692Z,97.02
2018-01-08T06:06:32.613Z,96.92
2018-01-08T06:07:32.533Z,97.21
2018-01-08T06:08:32.453Z,96.92
2018-01-08T06:09:32.372Z,97.59
2018-01-08T06:10:32.299Z,97.40
2018-01-08T06:11:32.211Z,96.83
2018-01-08T06:12:32.132Z,96.45
2018-01-08T06:13:32.051Z,96.36
2018-01-08T06:14:31.970Z,96.26
2018-01-08T06:15:31.891Z,96.45
2018-01-08T06:16:31.811Z,96.17
2018-01-08T06:17:31.730Z,96.17
2018-01-08T06:18:31.650Z,95.88
2018-01-08T06:19:31.573Z,96.26
2018-01-08T06:20:31.490Z,96.17
2018-01-08T06:21:31.408Z,96.17
2018-01-08T06:22:31.329Z,95.98
2018-01-08T06:23:31.252Z,96.36
2018-01-08T06:24:31.169Z,96.55
2018-01-08T06:25:31.087Z,96.64
2018-01-08T06:26:31.008Z,96.45
2018-01-08T06:27:30.928Z,96.55
2018-01-08T06:28:30.848Z,96.26
2018-01-08T06:29:30.767Z,96.64
2018-01-08T06:30:30.687Z,96.64
2018-01-08T06:31:30.607Z,96.55
2018-01-08T06:32:30.528Z,96.36
2018-01-08T06:33:30.446Z,96.73
2018-01-08T06:34:30.366Z,97.21
2018-01-08T06:35:30.286Z,96.83
2018-01-08T06:36:30.206Z,96.92
2018-01-08T06:37:30.126Z,96.64
2018-01-08T06:38:30.046Z,95.98
2018-01-08T06:39:29.966Z,96.26
2018-01-08T06:40:29.886Z,96.36
2018-01-08T06:41:29.805Z,96.36
2018-01-08T06:42:29.725Z,95.69
2018-01-08T06:43:29.645Z,95.50
2018-01-08T06:44:29.565Z,95.88
2018-01-08T06:45:29.484Z,95.98
2018-01-08T06:46:29.404Z,96.36
2018-01-08T06:47:29.325Z,96.36
2018-01-08T06:48:29.245Z,96.17
2018-01-08T06:49:29.165Z,96.45
2018-01-08T06:50:29.085Z,96.17
2018-01-08T06:51:29.008Z,96.08
2018-01-08T06:52:28.925Z,96.17
2018-01-08T06:53:28.842Z,96.17
2018-01-08T06:54:28.763Z,96.26
2018-01-08T06:55:28.683Z,96.17
2018-01-08T06:56:28.603Z,96.36
2018-01-08T06:57:28.527Z,95.69
2018-01-08T06:58:28.442Z,95.31
2018-01-08T06:59:28.365Z,95.60
2018-01-08T07:00:28.283Z,95.88
2018-01-08T07:01:28.202Z,95.60
2018-01-08T07:02:28.134Z,95.79
2018-01-08T07:03:28.043Z,95.69
2018-01-08T07:04:27.963Z,96.45
2018-01-08T07:05:27.882Z,95.79
2018-01-08T07:06:27.802Z,95.69
2018-01-08T07:07:27.722Z,95.31
2018-01-08T07:08:27.643Z,95.88
2018-01-08T07:09:27.563Z,95.50
2018-01-08T07:10:27.482Z,95.60
2018-01-08T07:11:27.406Z,95.41
2018-01-08T07:12:27.323Z,95.60
2018-01-08T07:13:27.242Z,95.41
2018-01-08T07:14:27.162Z,95.50
2018-01-08T07:15:27.083Z,95.22
2018-01-08T07:16:27.005Z,95.31
2018-01-08T07:17:26.922Z,95.60
2018-01-08T07:18:26.842Z,95.50
2018-01-08T07:19:26.763Z,95.50
2018-01-08T07:20:26.683Z,95.41
2018-01-08T07:21:26.602Z,95.41
2018-01-08T07:22:26.522Z,95.31
2018-01-08T07:23:26.442Z,94.84
2018-01-08T07:24:26.363Z,95.22
2018-01-08T07:25:26.282Z,95.60
2018-01-08T07:26:26.202Z,95.41
2018-01-08T07:27:26.123Z,95.41
2018-01-08T07:28:26.042Z,95.60
2018-01-08T07:29:25.963Z,95.60
2018-01-08T07:30:25.882Z,95.12
2018-01-08T07:31:25.802Z,95.12
2018-01-08T07:32:25.725Z,94.37
2018-01-08T07:33:25.641Z,94.74
2018-01-08T07:34:25.562Z,95.03
2018-01-08T07:35:25.482Z,95.03
2018-01-08T07:36:25.404Z,95.03
2018-01-08T07:37:25.322Z,94.56
2018-01-08T07:38:25.243Z,95.41
2018-01-08T07:39:25.164Z,95.41
2018-01-08T07:40:25.083Z,94.84
2018-01-08T07:41:25.003Z,94.84
2018-01-08T07:42:24.923Z,95.60
2018-01-08T07:43:24.844Z,95.12
2018-01-08T07:44:24.764Z,94.93
2018-01-08T07:45:24.683Z,94.74
2018-01-08T07:46:24.604Z,94.84
2018-01-08T07:47:24.524Z,94.65
2018-01-08T07:48:24.443Z,94.56
2018-01-08T07:49:24.364Z,94.56
2018-01-08T07:50:24.284Z,94.37
2018-01-08T07:51:24.205Z,94.37
2018-01-08T07:52:24.125Z,94.93
2018-01-08T07:53:24.045Z,94.84
2018-01-08T07:54:23.965Z,95.03
2018-01-08T07:55:23.886Z,95.41
2018-01-08T07:56:23.805Z,94.84
2018-01-08T07:57:23.725Z,94.65
2018-01-08T07:58:23.645Z,94.65
2018-01-08T07:59:23.566Z,94.74
2018-01-08T08:00:23.486Z,94.56
2018-01-08T08:01:23.405Z,94.65
2018-01-08T08:02:23.325Z,94.37
2018-01-08T08:03:23.248Z,93.99
2018-01-08T08:04:23.166Z,94.37
2018-01-08T08:05:23.086Z,94.84
2018-01-08T08:06:23.006Z,94.56
2018-01-08T08:07:22.926Z,94.46
2018-01-08T08:08:22.846Z,94.84
2018-01-08T08:09:22.768Z,94.65
2018-01-08T08:10:22.686Z,94.56
2018-01-08T08:11:22.605Z,95.03
2018-01-08T08:12:22.526Z,94.74
2018-01-08T08:13:22.443Z,94.27
2018-01-08T08:14:22.365Z,94.65
2018-01-08T08:15:22.284Z,94.56
2018-01-08T08:16:22.204Z,94.08
2018-01-08T08:17:22.123Z,94.46
2018-01-08T08:18:22.044Z,94.65
2018-01-08T08:19:21.964Z,94.65
2018-01-08T08:20:21.884Z,94.46
2018-01-08T08:21:21.802Z,94.65
2018-01-08T08:22:21.721Z,94.93
2018-01-08T08:23:21.644Z,94.65
2018-01-08T08:24:21.563Z,94.27
2018-01-08T08:25:21.481Z,94.27
2018-01-08T08:26:21.401Z,94.74
2018-01-08T08:27:21.321Z,94.46
2018-01-08T08:28:21.241Z,94.46
2018-01-08T08:29:21.161Z,93.80
2018-01-08T08:30:21.081Z,93.99
2018-01-08T08:31:21.001Z,93.89
2018-01-08T08:32:20.920Z,94.18
2018-01-08T08:33:20.840Z,94.74
2018-01-08T08:34:20.759Z,94.56
2018-01-08T08:35:20.679Z,94.27
2018-01-08T08:36:20.600Z,93.80
2018-01-08T08:37:20.519Z,94.08
2018-01-08T08:38:20.439Z,93.99
2018-01-08T08:39:20.359Z,94.27
2018-01-08T08:40:20.284Z,94.18
2018-01-08T08:41:20.198Z,94.56
2018-01-08T08:42:20.118Z,93.89
2018-01-08T08:43:20.039Z,94.37
2018-01-08T08:44:19.962Z,94.65
2018-01-08T08:45:19.878Z,94.27
2018-01-08T08:46:19.798Z,94.84
2018-01-08T08:47:19.718Z,94.18
2018-01-08T08:48:19.638Z,93.61
2018-01-08T08:49:19.557Z,93.99
2018-01-08T08:50:19.480Z,94.27
2018-01-08T08:51:19.397Z,94.18
2018-01-08T08:52:19.318Z,93.61
2018-01-08T08:53:19.237Z,94.18
2018-01-08T08:54:19.157Z,95.60
2018-01-08T08:55:19.077Z,95.41
2018-01-08T08:56:18.998Z,94.27
2018-01-08T08:57:18.917Z,94.27
2018-01-08T08:58:18.916Z,94.08
2018-01-08T08:59:18.757Z,94.46
2018-01-08T09:00:18.677Z,94.27
2018-01-08T09:01:18.596Z,94.18
2018-01-08T09:02:18.516Z,95.03
2018-01-08T09:03:18.437Z,93.51
2018-01-08T09:04:18.357Z,94.46
2018-01-08T09:05:18.276Z,93.61
2018-01-08T09:06:18.196Z,94.27
2018-01-08T09:07:18.119Z,93.61
2018-01-08T09:08:18.041Z,94.46
2018-01-08T09:09:17.957Z,93.61
2018-01-08T09:10:17.876Z,93.80
2018-01-08T09:11:17.798Z,94.37
2018-01-08T09:12:17.718Z,94.37
2018-01-08T09:13:17.638Z,94.03
2018-01-08T09:14:17.558Z,93.70
2018-01-08T09:15:17.478Z,93.51
2018-01-08T09:16:17.399Z,93.61
2018-01-08T09:17:17.318Z,93.61
2018-01-08T09:18:17.238Z,93.23
2018-01-08T09:19:17.160Z,93.70
2018-01-08T09:20:17.079Z,93.23
2018-01-08T09:21:16.997Z,93.89
2018-01-08T09:22:16.933Z,94.27
2018-01-08T09:23:16.839Z,93.61
2018-01-08T09:24:16.759Z,93.61
2018-01-08T09:25:16.678Z,94.18
2018-01-08T09:26:16.598Z,93.61
2018-01-08T09:27:16.518Z,93.61
2018-01-08T09:28:16.439Z,93.80
2018-01-08T09:29:16.359Z,93.41
2018-01-08T09:30:16.278Z,93.41
2018-01-08T09:31:16.198Z,94.18
2018-01-08T09:32:16.118Z,93.51
2018-01-08T09:33:16.037Z,94.18
2018-01-08T09:34:15.958Z,93.51
2018-01-08T09:35:15.878Z,93.99
2018-01-08T09:36:15.798Z,93.89
2018-01-08T09:37:15.719Z,93.70
2018-01-08T09:38:15.638Z,93.70
2018-01-08T09:39:15.558Z,93.99
2018-01-08T09:40:15.479Z,94.37
2018-01-08T09:41:15.401Z,93.32
2018-01-08T09:42:15.318Z,93.99
2018-01-08T09:43:15.239Z,93.41
2018-01-08T09:44:15.167Z,93.89
2018-01-08T09:45:15.083Z,93.70
2018-01-08T09:46:14.998Z,93.51
2018-01-08T09:47:14.918Z,93.61
2018-01-08T09:48:14.838Z,92.85
2018-01-08T09:49:14.758Z,92.85
2018-01-08T09:50:14.678Z,93.61
2018-01-08T09:51:14.611Z,93.61
2018-01-08T09:52:14.519Z,93.04
2018-01-08T09:53:14.438Z,93.80
2018-01-08T09:54:14.358Z,93.51
2018-01-08T09:55:14.279Z,94.46
2018-01-08T09:56:14.199Z,93.80
2018-01-08T09:57:14.117Z,94.08
2018-01-08T09:58:14.038Z,93.89
2018-01-08T09:59:13.958Z,92.90
2018-01-08T10:00:13.878Z,93.61
2018-01-08T10:01:13.798Z,94.37
2018-01-08T10:02:13.718Z,94.42
2018-01-08T10:03:13.638Z,93.70
2018-01-08T10:04:13.558Z,93.56
2018-01-08T10:05:13.477Z,93.65
2018-01-08T10:06:13.398Z,93.80
2018-01-08T10:07:13.318Z,93.84
2018-01-08T10:08:13.238Z,93.70
2018-01-08T10:09:13.157Z,93.61
2018-01-08T10:10:13.077Z,94.23
2018-01-08T10:11:12.998Z,93.84
2018-01-08T10:12:12.917Z,93.65
2018-01-08T10:13:12.837Z,93.32
2018-01-08T10:14:12.769Z,93.51
2018-01-08T10:15:12.678Z,93.65
2018-01-08T10:16:12.597Z,93.56
2018-01-08T10:17:12.516Z,93.65
2018-01-08T10:18:12.437Z,93.84
2018-01-08T10:19:12.357Z,93.37
2018-01-08T10:20:12.336Z,93.18
2018-01-08T10:21:12.197Z,92.90
2018-01-08T10:22:12.118Z,93.37
2018-01-08T10:23:12.037Z,92.90
2018-01-08T10:24:11.957Z,92.99
2018-01-08T10:25:11.877Z,92.90
2018-01-08T10:26:11.797Z,93.08
2018-01-08T10:27:11.717Z,92.80
2018-01-08T10:28:11.637Z,92.71
2018-01-08T10:29:11.556Z,92.52
2018-01-08T10:30:11.476Z,93.18
2018-01-08T10:31:11.397Z,92.99
2018-01-08T10:32:11.317Z,92.71
2018-01-08T10:33:11.240Z,93.27
2018-01-08T10:34:11.156Z,92.71
2018-01-08T10:35:11.082Z,92.71
2018-01-08T10:36:10.997Z,92.71
2018-01-08T10:37:10.916Z,92.52
2018-01-08T10:38:10.836Z,93.08
2018-01-08T10:39:10.756Z,92.90
2018-01-08T10:40:10.677Z,92.52
2018-01-08T10:41:10.595Z,93.56
2018-01-08T10:42:10.516Z,92.52
2018-01-08T10:43:10.438Z,92.71
2018-01-08T10:44:10.357Z,93.27
2018-01-08T10:45:10.277Z,92.33
2018-01-08T10:46:10.197Z,92.61
2018-01-08T10:47:10.119Z,92.61
2018-01-08T10:48:10.038Z,92.14
2018-01-08T10:49:09.957Z,92.52
2018-01-08T10:50:09.878Z,92.61
2018-01-08T10:51:09.798Z,92.33
2018-01-08T10:52:09.720Z,92.42
2018-01-08T10:53:09.639Z,92.42
2018-01-08T10:54:09.559Z,91.75
2018-01-08T10:55:09.479Z,92.52
2018-01-08T10:56:09.400Z,92.90
2018-01-08T10:57:09.320Z,92.61
2018-01-08T10:58:09.239Z,91.66
2018-01-08T10:59:09.162Z,91.66
2018-01-08T11:00:09.081Z,92.33
2018-01-08T11:01:09.001Z,92.04
2018-01-08T11:02:08.922Z,91.94
2018-01-08T11:03:08.842Z,92.52
2018-01-08T11:04:08.762Z,91.75
2018-01-08T11:05:08.682Z,91.56
2018-01-08T11:06:08.603Z,92.23
2018-01-08T11:07:08.525Z,92.23
2018-01-08T11:08:08.444Z,92.71
2018-01-08T11:09:08.364Z,92.47
2018-01-08T11:10:08.290Z,91.52
2018-01-08T11:11:08.206Z,91.52
2018-01-08T11:12:08.126Z,91.24
2018-01-08T11:13:08.046Z,91.14
2018-01-08T11:14:08.008Z,91.14
2018-01-08T11:15:07.887Z,91.42
2018-01-08T11:16:07.812Z,91.14
2018-01-08T11:17:07.729Z,91.14
2018-01-08T11:18:07.650Z,90.85
2018-01-08T11:19:07.571Z,91.52
2018-01-08T11:20:07.492Z,90.95
2018-01-08T11:21:07.412Z,90.19
2018-01-08T11:22:07.334Z,90.28
2018-01-08T11:23:07.254Z,90.28
2018-01-08T11:24:07.177Z,89.81
2018-01-08T11:25:07.096Z,90.19
2018-01-08T11:26:07.016Z,90.19
2018-01-08T11:27:06.937Z,90.00
2018-01-08T11:28:06.858Z,90.38
2018-01-08T11:29:06.777Z,89.90
2018-01-08T11:30:06.700Z,90.09
2018-01-08T11:31:06.620Z,90.47
2018-01-08T11:32:06.545Z,89.72
2018-01-08T11:33:06.463Z,89.33
2018-01-08T11:34:06.384Z,89.90
2018-01-08T11:35:06.306Z,90.19
2018-01-08T11:36:06.228Z,90.66
2018-01-08T11:37:06.147Z,90.19
2018-01-08T11:38:06.074Z,89.33
2018-01-08T11:39:05.989Z,89.90
2018-01-08T11:40:05.912Z,90.00
2018-01-08T11:41:05.876Z,89.05
2018-01-08T11:42:05.752Z,89.33
2018-01-08T11:43:05.675Z,90.19
2018-01-08T11:44:05.596Z,90.38
2018-01-08T11:45:05.515Z,89.81
2018-01-08T11:46:05.436Z,90.19
2018-01-08T11:47:05.359Z,90.95
2018-01-08T11:48:05.279Z,89.90
2018-01-08T11:49:05.200Z,90.09
2018-01-08T11:50:05.120Z,90.57
2018-01-08T11:51:05.042Z,90.38
2018-01-08T11:52:04.962Z,90.00
2018-01-08T11:53:04.883Z,89.33
2018-01-08T11:54:04.805Z,89.90
2018-01-08T11:55:04.726Z,89.14
2018-01-08T11:56:04.648Z,89.62
2018-01-08T11:57:04.567Z,90.38
2018-01-08T11:58:04.488Z,90.00
2018-01-08T11:59:04.410Z,90.28
2018-01-08T12:00:04.332Z,90.00
2018-01-08T12:01:04.252Z,90.38
2018-01-08T12:02:04.172Z,90.00
2018-01-08T12:03:04.095Z,89.33
2018-01-08T12:04:04.014Z,89.72
2018-01-08T12:05:03.936Z,90.28
2018-01-08T12:06:03.856Z,90.00
2018-01-08T12:07:03.778Z,91.24
2018-01-08T12:08:03.699Z,90.38
2018-01-08T12:09:03.621Z,90.95
2018-01-08T12:10:03.539Z,90.85
2018-01-08T12:11:03.461Z,90.76
2018-01-08T12:12:03.383Z,90.57
2018-01-08T12:13:03.302Z,90.47
2018-01-08T12:14:03.223Z,90.57
2018-01-08T12:15:03.143Z,90.57
2018-01-08T12:16:03.064Z,91.61
2018-01-08T12:17:02.983Z,90.57
2018-01-08T12:18:02.955Z,90.66
2018-01-08T12:19:02.827Z,89.90
2018-01-08T12:20:02.747Z,90.19
2018-01-08T12:21:02.667Z,90.28
2018-01-08T12:22:02.588Z,90.47
2018-01-08T12:23:02.509Z,90.47
2018-01-08T12:24:02.436Z,91.24
2018-01-08T12:25:02.349Z,90.47
2018-01-08T12:26:02.270Z,90.38
2018-01-08T12:27:02.191Z,89.81
2018-01-08T12:28:02.111Z,90.09
2018-01-08T12:29:02.032Z,90.38
2018-01-08T12:30:01.953Z,90.19
2018-01-08T12:31:01.874Z,90.38
2018-01-08T12:32:01.795Z,90.09
2018-01-08T12:33:01.714Z,91.04
2018-01-08T12:34:01.635Z,91.42
2018-01-08T12:35:01.556Z,91.04
2018-01-08T12:36:01.480Z,91.14
2018-01-08T12:37:01.400Z,91.14
2018-01-08T12:38:01.318Z,90.00
2018-01-08T12:39:01.239Z,89.81
2018-01-08T12:40:01.160Z,90.09
2018-01-08T12:41:01.080Z,90.09
2018-01-08T12:42:01.002Z,89.90
2018-01-08T12:43:00.922Z,90.00
2018-01-08T12:44:00.843Z,89.72
2018-01-08T12:45:00.763Z,90.57
2018-01-08T12:46:00.684Z,90.38
2018-01-08T12:47:00.606Z,90.09
2018-01-08T12:48:00.527Z,89.72
2018-01-08T12:49:00.447Z,90.38
2018-01-08T12:50:00.375Z,90.47
2018-01-08T12:51:00.289Z,90.57